Terminal Aerodrome Forecast
Issued by NWS Sterling, VA

Home | Current Version | Previous Version | Text Only | Print | Product List | Glossary On
Versions: 1 2 3 4 5 6 7 8 9 10 11 12 13 14 15 16
305
FTUS41 KLWX 160539
TAFMRB
TAF
KMRB 160539Z 1606/1706 27012KT P6SM OVC050
     FM160900 26007KT P6SM BKN050
     FM161200 22008KT P6SM SCT100
     FM161600 25012G20KT P6SM SCT090
     FM162100 26007KT P6SM SCT100
     FM170100 VRB04KT P6SM FEW250=

USA.gov is the U.S. government's official web portal to all federal, state and local government web resources and services.